Time,TemperatureF,DewpointF,PressureIn,WindDirection,WindDirectionDegrees,WindSpeedMPH,WindSpeedGustMPH,Humidity,HourlyPrecipIn,Conditions,Clouds,dailyrainin,SoftwareType,DateUTC
2013-04-20 00:00:00,56.8,44.4,29.68,SSW,211,4.0,4.9,63,0.00,,---,0.00,VWS V14.01,2013-04-20 04:00:00,
2013-04-20 00:01:00,56.8,44.4,29.68,SW,227,5.8,5.8,63,0.00,,---,0.00,VWS V14.01,2013-04-20 04:01:00,
2013-04-20 00:06:00,56.1,39.7,29.68,North,9,0.0,2.2,54,0.00,,---,0.00,VWS V14.01,2013-04-20 04:06:00,
2013-04-20 00:11:00,55.9,39.5,29.68,WSW,240,3.6,3.6,54,0.00,,---,0.00,VWS V14.01,2013-04-20 04:11:00,
2013-04-20 00:16:00,55.9,41.4,29.68,NNE,20,0.0,0.0,58,0.00,,---,0.00,VWS V14.01,2013-04-20 04:16:00,
2013-04-20 00:21:00,54.9,36.1,29.68,North,0,3.1,4.5,49,0.00,,---,0.00,VWS V14.01,2013-04-20 04:21:00,
2013-04-20 00:26:00,54.1,35.4,29.68,West,279,2.7,2.7,49,0.00,,---,0.00,VWS V14.01,2013-04-20 04:26:00,
2013-04-20 00:31:00,53.1,33.4,29.68,WNW,297,0.0,0.0,47,0.00,,---,0.00,VWS V14.01,2013-04-20 04:31:00,
2013-04-20 00:36:00,52.7,33.6,29.68,ENE,70,0.0,0.0,48,0.00,,---,0.00,VWS V14.01,2013-04-20 04:36:00,
2013-04-20 00:41:00,52.5,34.9,29.68,West,263,3.1,3.1,51,0.00,,---,0.00,VWS V14.01,2013-04-20 04:41:00,
2013-04-20 00:46:00,52.7,37.0,29.68,WSW,248,0.0,2.2,55,0.00,,---,0.00,VWS V14.01,2013-04-20 04:46:00,
2013-04-20 00:51:00,52.5,37.3,29.68,SW,232,3.6,6.3,56,0.00,,---,0.00,VWS V14.01,2013-04-20 04:51:00,
2013-04-20 00:56:00,52.3,34.8,29.71,WSW,249,5.4,5.4,51,0.00,,---,0.00,VWS V14.01,2013-04-20 04:56:00,
2013-04-20 01:01:00,51.3,31.7,29.71,WSW,257,6.3,8.3,47,0.00,,---,0.00,VWS V14.01,2013-04-20 05:01:00,
2013-04-20 01:06:00,50.7,31.2,29.71,WSW,254,4.9,5.8,47,0.00,,---,0.00,VWS V14.01,2013-04-20 05:06:00,
2013-04-20 01:11:00,50.5,31.6,29.71,West,273,0.0,0.0,48,0.00,,---,0.00,VWS V14.01,2013-04-20 05:11:00,
2013-04-20 01:16:00,50.4,31.4,29.71,West,278,0.0,2.7,48,0.00,,---,0.00,VWS V14.01,2013-04-20 05:16:00,
2013-04-20 01:21:00,50.7,33.8,29.71,WNW,283,0.0,0.0,52,0.00,,---,0.00,VWS V14.01,2013-04-20 05:21:00,
2013-04-20 01:26:00,50.7,35.2,29.71,SW,219,4.0,4.0,55,0.00,,---,0.00,VWS V14.01,2013-04-20 05:26:00,
2013-04-20 01:31:00,50.5,35.0,29.71,SW,229,0.0,3.1,55,0.00,,---,0.00,VWS V14.01,2013-04-20 05:31:00,
2013-04-20 01:36:00,50.7,35.6,29.71,SW,232,2.2,2.2,56,0.00,,---,0.00,VWS V14.01,2013-04-20 05:36:00,
2013-04-20 01:41:00,50.9,37.1,29.68,WSW,248,0.0,0.0,59,0.00,,---,0.00,VWS V14.01,2013-04-20 05:41:00,
2013-04-20 01:46:00,51.1,38.1,29.68,WSW,248,0.0,0.0,61,0.00,,---,0.00,VWS V14.01,2013-04-20 05:46:00,
2013-04-20 01:51:00,51.1,38.9,29.68,WSW,248,2.7,3.6,63,0.00,,---,0.00,VWS V14.01,2013-04-20 05:51:00,
2013-04-20 01:56:00,51.1,39.7,29.71,WSW,258,6.3,6.3,65,0.00,,---,0.00,VWS V14.01,2013-04-20 05:56:00,
2013-04-20 02:01:00,50.9,39.2,29.71,West,270,0.0,0.0,64,0.00,,---,0.00,VWS V14.01,2013-04-20 06:01:00,
2013-04-20 02:06:00,51.1,40.1,29.71,SSW,213,4.0,4.0,66,0.00,,---,0.00,VWS V14.01,2013-04-20 06:06:00,
2013-04-20 02:11:00,50.9,40.3,29.71,WSW,244,6.3,6.3,67,0.00,,---,0.00,VWS V14.01,2013-04-20 06:11:00,
2013-04-20 02:16:00,50.7,39.8,29.71,West,272,0.0,2.2,66,0.00,,---,0.00,VWS V14.01,2013-04-20 06:16:00,
2013-04-20 02:21:00,50.7,40.6,29.71,SW,230,3.1,3.1,68,0.00,,---,0.00,VWS V14.01,2013-04-20 06:21:00,
2013-04-20 02:26:00,50.7,40.9,29.71,WSW,240,3.6,3.6,69,0.00,,---,0.00,VWS V14.01,2013-04-20 06:26:00,
2013-04-20 02:31:00,50.5,40.4,29.71,West,260,5.8,5.8,68,0.00,,---,0.00,VWS V14.01,2013-04-20 06:31:00,
2013-04-20 02:36:00,50.2,38.9,29.71,NNW,334,0.0,2.7,65,0.00,,---,0.00,VWS V14.01,2013-04-20 06:36:00,
2013-04-20 02:41:00,50.2,38.5,29.71,WSW,239,5.4,5.4,64,0.00,,---,0.00,VWS V14.01,2013-04-20 06:41:00,
2013-04-20 02:46:00,50.2,38.5,29.71,West,273,0.0,0.0,64,0.00,,---,0.00,VWS V14.01,2013-04-20 06:46:00,
2013-04-20 02:51:00,50.0,38.3,29.71,WSW,246,0.0,2.7,64,0.00,,---,0.00,VWS V14.01,2013-04-20 06:51:00,
2013-04-20 02:56:00,50.0,38.7,29.71,West,264,2.7,2.7,65,0.00,,---,0.00,VWS V14.01,2013-04-20 06:56:00,
2013-04-20 03:01:00,50.0,38.3,29.71,WSW,245,4.0,4.0,64,0.00,,---,0.00,VWS V14.01,2013-04-20 07:01:00,
2013-04-20 03:06:00,50.0,38.7,29.71,WSW,238,2.7,2.7,65,0.00,,---,0.00,VWS V14.01,2013-04-20 07:06:00,
2013-04-20 03:11:00,49.8,39.3,29.71,WSW,243,3.1,4.0,67,0.00,,---,0.00,VWS V14.01,2013-04-20 07:11:00,
2013-04-20 03:16:00,49.8,38.2,29.71,WSW,254,0.0,0.0,64,0.00,,---,0.00,VWS V14.01,2013-04-20 07:16:00,
2013-04-20 03:21:00,50.0,39.5,29.71,SSW,206,3.6,4.0,67,0.00,,---,0.00,VWS V14.01,2013-04-20 07:21:00,
2013-04-20 03:26:00,50.0,39.9,29.74,WSW,251,3.1,3.1,68,0.00,,---,0.00,VWS V14.01,2013-04-20 07:26:00,
2013-04-20 03:31:00,49.6,38.8,29.74,WSW,246,3.6,4.9,66,0.00,,---,0.00,VWS V14.01,2013-04-20 07:31:00,
2013-04-20 03:36:00,49.5,37.8,29.74,West,270,3.6,4.0,64,0.00,,---,0.00,VWS V14.01,2013-04-20 07:36:00,
2013-04-20 03:41:00,49.3,36.4,29.74,SW,221,4.0,5.4,61,0.00,,---,0.00,VWS V14.01,2013-04-20 07:41:00,
2013-04-20 03:46:00,49.3,37.2,29.74,WSW,246,3.1,3.6,63,0.00,,---,0.00,VWS V14.01,2013-04-20 07:46:00,
2013-04-20 03:51:00,49.3,37.2,29.74,West,277,0.0,2.2,63,0.00,,---,0.00,VWS V14.01,2013-04-20 07:51:00,
2013-04-20 03:56:00,49.1,36.7,29.74,West,264,2.2,2.7,62,0.00,,---,0.00,VWS V14.01,2013-04-20 07:56:00,
2013-04-20 04:01:00,49.1,36.7,29.74,West,259,4.0,4.9,62,0.00,,---,0.00,VWS V14.01,2013-04-20 08:01:00,
2013-04-20 04:06:00,48.9,36.1,29.74,SW,226,3.6,3.6,61,0.00,,---,0.00,VWS V14.01,2013-04-20 08:06:00,
2013-04-20 04:11:00,49.1,36.7,29.74,SW,222,0.0,0.0,62,0.00,,---,0.00,VWS V14.01,2013-04-20 08:11:00,
2013-04-20 04:16:00,48.9,36.5,29.74,West,262,5.4,5.4,62,0.00,,---,0.00,VWS V14.01,2013-04-20 08:16:00,
2013-04-20 04:21:00,48.9,34.4,29.74,SW,219,3.1,3.1,57,0.00,,---,0.00,VWS V14.01,2013-04-20 08:21:00,
2013-04-20 04:26:00,48.9,33.0,29.77,SW,218,3.1,3.6,54,0.00,,---,0.00,VWS V14.01,2013-04-20 08:26:00,
2013-04-20 04:31:00,48.9,32.1,29.77,WSW,251,3.6,4.0,52,0.00,,---,0.00,VWS V14.01,2013-04-20 08:31:00,
2013-04-20 04:36:00,48.9,31.1,29.77,WSW,243,0.0,0.0,50,0.00,,---,0.00,VWS V14.01,2013-04-20 08:36:00,
2013-04-20 04:41:00,48.7,29.4,29.77,SW,228,3.6,3.6,47,0.00,,---,0.00,VWS V14.01,2013-04-20 08:41:00,
2013-04-20 04:46:00,48.7,28.9,29.77,SW,226,3.1,3.1,46,0.00,,---,0.00,VWS V14.01,2013-04-20 08:46:00,
2013-04-20 04:51:00,48.7,28.9,29.77,WSW,245,5.4,5.4,46,0.00,,---,0.00,VWS V14.01,2013-04-20 08:51:00,
2013-04-20 04:56:00,48.7,28.4,29.77,WSW,256,3.1,5.8,45,0.00,,---,0.00,VWS V14.01,2013-04-20 08:56:00,
2013-04-20 05:01:00,48.4,26.4,29.80,West,259,4.0,4.0,42,0.00,,---,0.00,VWS V14.01,2013-04-20 09:01:00,
2013-04-20 05:06:00,48.6,27.1,29.80,West,259,3.6,3.6,43,0.00,,---,0.00,VWS V14.01,2013-04-20 09:06:00,
2013-04-20 05:11:00,48.4,26.4,29.80,West,277,3.1,3.1,42,0.00,,---,0.00,VWS V14.01,2013-04-20 09:11:00,
2013-04-20 05:16:00,48.4,26.4,29.80,WNW,286,3.6,3.6,42,0.00,,---,0.00,VWS V14.01,2013-04-20 09:16:00,
2013-04-20 05:21:00,48.2,25.0,29.80,WSW,244,3.1,3.6,40,0.00,,---,0.00,VWS V14.01,2013-04-20 09:21:00,
2013-04-20 05:26:00,48.4,25.8,29.80,WSW,257,2.7,3.6,41,0.00,,---,0.00,VWS V14.01,2013-04-20 09:26:00,
2013-04-20 05:31:00,48.2,25.6,29.80,WSW,246,3.1,3.1,41,0.00,,---,0.00,VWS V14.01,2013-04-20 09:31:00,
2013-04-20 05:36:00,48.4,25.8,29.80,WSW,254,0.0,0.0,41,0.00,,---,0.00,VWS V14.01,2013-04-20 09:36:00,
2013-04-20 05:41:00,48.4,25.8,29.80,SW,227,0.0,0.0,41,0.00,,---,0.00,VWS V14.01,2013-04-20 09:41:00,
2013-04-20 05:46:00,48.4,26.4,29.83,WSW,254,0.0,0.0,42,0.00,,---,0.00,VWS V14.01,2013-04-20 09:46:00,
2013-04-20 05:51:00,48.4,25.8,29.83,WSW,245,5.4,5.4,41,0.00,,---,0.00,VWS V14.01,2013-04-20 09:51:00,
2013-04-20 05:56:00,48.4,25.2,29.83,West,274,0.0,0.0,40,0.00,,---,0.00,VWS V14.01,2013-04-20 09:56:00,
2013-04-20 06:01:00,48.4,25.2,29.83,SW,233,0.0,0.0,40,0.00,,---,0.00,VWS V14.01,2013-04-20 10:01:00,
2013-04-20 06:06:00,48.4,24.6,29.83,SW,235,3.6,3.6,39,0.00,,---,0.00,VWS V14.01,2013-04-20 10:06:00,
2013-04-20 06:11:00,48.0,23.6,29.83,WSW,252,0.0,0.0,38,0.00,,---,0.00,VWS V14.01,2013-04-20 10:11:00,
2013-04-20 06:16:00,48.2,24.4,29.83,SW,229,0.0,0.0,39,0.00,,---,0.00,VWS V14.01,2013-04-20 10:16:00,
2013-04-20 06:21:00,48.2,23.8,29.83,WSW,246,0.0,0.0,38,0.00,,---,0.00,VWS V14.01,2013-04-20 10:21:00,
2013-04-20 06:26:00,48.0,23.6,29.83,West,266,0.0,2.2,38,0.00,,---,0.00,VWS V14.01,2013-04-20 10:26:00,
2013-04-20 06:31:00,48.2,23.2,29.83,SW,236,0.0,4.0,37,0.00,,---,0.00,VWS V14.01,2013-04-20 10:31:00,
2013-04-20 06:36:00,48.2,23.8,29.83,SW,221,0.0,0.0,38,0.00,,---,0.00,VWS V14.01,2013-04-20 10:36:00,
2013-04-20 06:41:00,48.0,23.6,29.85,SW,235,0.0,0.0,38,0.00,,---,0.00,VWS V14.01,2013-04-20 10:41:00,
2013-04-20 06:46:00,48.0,23.6,29.85,WSW,249,0.0,0.0,38,0.00,,---,0.00,VWS V14.01,2013-04-20 10:46:00,
2013-04-20 06:51:00,48.0,23.6,29.85,WSW,257,0.0,0.0,38,0.00,,---,0.00,VWS V14.01,2013-04-20 10:51:00,
2013-04-20 06:56:00,48.2,23.2,29.85,WSW,251,2.2,2.2,37,0.00,,---,0.00,VWS V14.01,2013-04-20 10:56:00,
2013-04-20 07:01:00,48.4,23.3,29.85,WSW,251,0.0,0.0,37,0.00,,---,0.00,VWS V14.01,2013-04-20 11:01:00,
2013-04-20 07:06:00,48.4,23.3,29.85,WNW,299,0.0,0.0,37,0.00,,---,0.00,VWS V14.01,2013-04-20 11:06:00,
2013-04-20 07:11:00,48.6,23.5,29.85,WSW,254,0.0,0.0,37,0.00,,---,0.00,VWS V14.01,2013-04-20 11:11:00,
2013-04-20 07:16:00,48.4,23.3,29.85,SW,231,0.0,0.0,37,0.00,,---,0.00,VWS V14.01,2013-04-20 11:16:00,
2013-04-20 07:21:00,48.4,23.3,29.85,NW,313,0.0,0.0,37,0.00,,---,0.00,VWS V14.01,2013-04-20 11:21:00,
2013-04-20 07:26:00,48.4,23.3,29.85,NW,311,0.0,0.0,37,0.00,,---,0.00,VWS V14.01,2013-04-20 11:26:00,
2013-04-20 07:31:00,48.4,23.3,29.85,SW,231,0.0,0.0,37,0.00,,---,0.00,VWS V14.01,2013-04-20 11:31:00,
2013-04-20 07:36:00,48.4,23.3,29.85,SW,226,0.0,0.0,37,0.00,,---,0.00,VWS V14.01,2013-04-20 11:36:00,
2013-04-20 07:41:00,48.6,23.5,29.85,WNW,286,0.0,0.0,37,0.00,,---,0.00,VWS V14.01,2013-04-20 11:41:00,
2013-04-20 07:46:00,48.4,23.3,29.85,WSW,255,0.0,2.2,37,0.00,,---,0.00,VWS V14.01,2013-04-20 11:46:00,
2013-04-20 07:51:00,48.7,23.6,29.85,West,262,0.0,0.0,37,0.00,,---,0.00,VWS V14.01,2013-04-20 11:51:00,
2013-04-20 07:56:00,49.1,24.0,29.85,WSW,253,0.0,0.0,37,0.00,,---,0.00,VWS V14.01,2013-04-20 11:56:00,
2013-04-20 08:01:00,50.0,24.8,29.88,WNW,288,0.0,0.0,37,0.00,,---,0.00,VWS V14.01,2013-04-20 12:01:00,
2013-04-20 08:06:00,50.5,25.2,29.88,WSW,250,0.0,0.0,37,0.00,,---,0.00,VWS V14.01,2013-04-20 12:06:00,
2013-04-20 08:11:00,50.9,25.6,29.88,North,357,0.0,0.0,37,0.00,,---,0.00,VWS V14.01,2013-04-20 12:11:00,
2013-04-20 08:16:00,51.4,26.0,29.88,West,280,0.0,0.0,37,0.00,,---,0.00,VWS V14.01,2013-04-20 12:16:00,
2013-04-20 08:21:00,50.7,25.4,29.88,WSW,239,0.0,5.8,37,0.00,,---,0.00,VWS V14.01,2013-04-20 12:21:00,
2013-04-20 08:26:00,50.4,25.1,29.88,SSW,204,0.0,3.6,37,0.00,,---,0.00,VWS V14.01,2013-04-20 12:26:00,
2013-04-20 08:31:00,50.2,24.9,29.88,WNW,298,2.7,4.0,37,0.00,,---,0.00,VWS V14.01,2013-04-20 12:31:00,
2013-04-20 08:36:00,50.4,25.1,29.88,North,353,4.9,4.9,37,0.00,,---,0.00,VWS V14.01,2013-04-20 12:36:00,
2013-04-20 08:41:00,50.4,25.1,29.88,SSW,203,5.8,5.8,37,0.00,,---,0.00,VWS V14.01,2013-04-20 12:41:00,
2013-04-20 08:46:00,50.4,25.1,29.85,West,279,4.0,4.9,37,0.00,,---,0.00,VWS V14.01,2013-04-20 12:46:00,
2013-04-20 08:51:00,50.5,25.2,29.85,WSW,252,4.0,5.4,37,0.00,,---,0.00,VWS V14.01,2013-04-20 12:51:00,
2013-04-20 08:56:00,50.5,25.2,29.88,WSW,237,3.6,4.0,37,0.00,,---,0.00,VWS V14.01,2013-04-20 12:56:00,
2013-04-20 09:01:00,50.7,24.8,29.88,WSW,254,3.6,5.8,36,0.00,,---,0.00,VWS V14.01,2013-04-20 13:01:00,
2013-04-20 09:06:00,50.9,24.9,29.88,WNW,286,2.7,5.8,36,0.00,,---,0.00,VWS V14.01,2013-04-20 13:06:00,
2013-04-20 09:11:00,50.5,24.6,29.88,WSW,255,5.4,5.8,36,0.00,,---,0.00,VWS V14.01,2013-04-20 13:11:00,
2013-04-20 09:16:00,50.4,24.4,29.91,West,261,7.6,7.6,36,0.00,,---,0.00,VWS V14.01,2013-04-20 13:16:00,
2013-04-20 09:21:00,50.7,24.8,29.91,SW,219,4.0,6.3,36,0.00,,---,0.00,VWS V14.01,2013-04-20 13:21:00,
2013-04-20 09:26:00,50.2,24.3,29.91,NW,324,4.9,6.3,36,0.00,,---,0.00,VWS V14.01,2013-04-20 13:26:00,
2013-04-20 09:31:00,50.4,24.4,29.91,WNW,287,6.3,6.3,36,0.00,,---,0.00,VWS V14.01,2013-04-20 13:31:00,
2013-04-20 09:36:00,50.5,24.6,29.91,West,269,2.7,5.8,36,0.00,,---,0.00,VWS V14.01,2013-04-20 13:36:00,
2013-04-20 09:40:00,50.9,24.9,29.91,SW,226,3.6,5.8,36,0.00,,---,0.00,VWS V14.01,2013-04-20 13:40:00,
2013-04-20 09:45:00,50.9,24.9,29.91,WNW,300,3.1,8.3,36,0.00,,---,0.00,VWS V14.01,2013-04-20 13:45:00,
2013-04-20 09:51:00,51.1,25.1,29.91,WSW,240,5.4,5.4,36,0.00,,---,0.00,VWS V14.01,2013-04-20 13:51:00,
2013-04-20 09:56:00,50.7,24.8,29.91,WSW,239,8.1,10.5,36,0.00,,---,0.00,VWS V14.01,2013-04-20 13:56:00,
2013-04-20 10:01:00,50.9,24.9,29.91,West,272,3.6,6.3,36,0.00,,---,0.00,VWS V14.01,2013-04-20 14:01:00,
2013-04-20 10:06:00,50.9,24.9,29.91,SW,230,7.2,8.7,36,0.00,,---,0.00,VWS V14.01,2013-04-20 14:06:00,
2013-04-20 10:10:00,50.9,24.9,29.91,West,274,6.3,9.2,36,0.00,,---,0.00,VWS V14.01,2013-04-20 14:10:00,
2013-04-20 10:16:00,50.7,24.8,29.94,SW,234,3.6,7.2,36,0.00,,---,0.00,VWS V14.01,2013-04-20 14:16:00,
2013-04-20 10:21:00,50.9,24.9,29.94,West,260,6.3,6.3,36,0.00,,---,0.00,VWS V14.01,2013-04-20 14:21:00,
2013-04-20 10:26:00,51.4,25.4,29.94,SW,217,5.4,5.8,36,0.00,,---,0.00,VWS V14.01,2013-04-20 14:26:00,
2013-04-20 10:30:00,51.6,25.6,29.94,NW,314,4.0,5.4,36,0.00,,---,0.00,VWS V14.01,2013-04-20 14:30:00,
2013-04-20 10:36:00,51.8,25.7,29.94,WSW,240,0.0,3.6,36,0.00,,---,0.00,VWS V14.01,2013-04-20 14:36:00,
2013-04-20 10:40:00,52.0,25.9,29.94,SW,218,6.3,6.3,36,0.00,,---,0.00,VWS V14.01,2013-04-20 14:40:00,
2013-04-20 10:45:00,51.4,25.4,29.94,West,261,8.1,9.2,36,0.00,,---,0.00,VWS V14.01,2013-04-20 14:45:00,
2013-04-20 10:50:00,50.7,24.8,29.94,WSW,240,8.3,8.7,36,0.00,,---,0.00,VWS V14.01,2013-04-20 14:50:00,
2013-04-20 10:55:00,51.6,25.6,29.94,SW,232,2.7,6.3,36,0.00,,---,0.00,VWS V14.01,2013-04-20 14:55:00,
2013-04-20 11:00:00,51.6,25.6,29.97,WSW,242,3.1,6.3,36,0.00,,---,0.00,VWS V14.01,2013-04-20 15:00:00,
2013-04-20 11:05:00,51.6,25.6,29.97,SW,233,8.3,8.3,36,0.00,,---,0.00,VWS V14.01,2013-04-20 15:05:00,
2013-04-20 11:10:00,51.4,25.4,29.97,SSW,210,8.1,8.1,36,0.00,,---,0.00,VWS V14.01,2013-04-20 15:10:00,
2013-04-20 11:15:00,50.4,24.4,29.97,SW,224,4.0,11.0,36,0.00,,---,0.00,VWS V14.01,2013-04-20 15:15:00,
2013-04-20 11:20:00,50.9,24.9,29.97,WSW,254,3.1,4.9,36,0.00,,---,0.00,VWS V14.01,2013-04-20 15:20:00,
2013-04-20 11:25:00,50.7,24.8,29.97,SW,223,7.6,7.6,36,0.00,,---,0.00,VWS V14.01,2013-04-20 15:25:00,
2013-04-20 11:30:00,51.4,25.4,29.97,WSW,247,3.6,7.6,36,0.00,,---,0.00,VWS V14.01,2013-04-20 15:30:00,
2013-04-20 11:35:00,52.2,26.0,29.97,West,259,5.4,5.4,36,0.00,,---,0.00,VWS V14.01,2013-04-20 15:35:00,
2013-04-20 11:40:00,52.9,26.7,29.97,West,265,3.6,6.3,36,0.00,,---,0.00,VWS V14.01,2013-04-20 15:40:00,
2013-04-20 11:45:00,53.1,26.8,29.97,SSW,211,4.9,10.1,36,0.00,,---,0.00,VWS V14.01,2013-04-20 15:45:00,
2013-04-20 11:50:00,53.4,27.1,29.97,WSW,253,5.8,8.7,36,0.00,,---,0.00,VWS V14.01,2013-04-20 15:50:00,
2013-04-20 11:55:00,52.9,26.7,29.97,SSW,200,5.8,7.6,36,0.00,,---,0.00,VWS V14.01,2013-04-20 15:55:00,
2013-04-20 12:00:00,53.4,27.1,29.97,SW,225,3.6,3.6,36,0.00,,---,0.00,VWS V14.01,2013-04-20 16:00:00,
2013-04-20 12:05:00,53.1,26.8,29.97,SW,234,5.4,7.6,36,0.00,,---,0.00,VWS V14.01,2013-04-20 16:05:00,
2013-04-20 12:10:00,53.8,27.5,29.97,WSW,243,5.4,8.1,36,0.00,,---,0.00,VWS V14.01,2013-04-20 16:10:00,
2013-04-20 12:15:00,54.0,27.6,29.97,SW,215,6.3,6.3,36,0.00,,---,0.00,VWS V14.01,2013-04-20 16:15:00,
2013-04-20 12:20:00,53.4,27.1,29.97,WSW,256,13.2,13.2,36,0.00,,---,0.00,VWS V14.01,2013-04-20 16:20:00,
2013-04-20 12:25:00,54.0,27.6,29.97,WSW,239,5.4,5.4,36,0.00,,---,0.00,VWS V14.01,2013-04-20 16:25:00,
2013-04-20 12:30:00,54.5,28.1,29.97,North,6,5.4,5.4,36,0.00,,---,0.00,VWS V14.01,2013-04-20 16:30:00,
2013-04-20 12:35:00,54.9,28.4,29.97,WSW,257,3.1,8.7,36,0.00,,---,0.00,VWS V14.01,2013-04-20 16:35:00,
2013-04-20 12:40:00,54.9,28.4,29.97,SW,230,5.4,7.2,36,0.00,,---,0.00,VWS V14.01,2013-04-20 16:40:00,
2013-04-20 12:45:00,55.8,28.5,29.94,SW,232,5.8,7.6,35,0.00,,---,0.00,VWS V14.01,2013-04-20 16:45:00,
2013-04-20 12:50:00,56.1,28.9,29.94,West,278,4.9,6.3,35,0.00,,---,0.00,VWS V14.01,2013-04-20 16:50:00,
2013-04-20 12:55:00,56.8,29.5,29.94,WSW,239,4.9,4.9,35,0.00,,---,0.00,VWS V14.01,2013-04-20 16:55:00,
2013-04-20 13:00:00,57.6,30.1,29.94,WSW,249,6.3,7.2,35,0.00,,---,0.00,VWS V14.01,2013-04-20 17:00:00,
2013-04-20 13:05:00,57.6,30.1,29.94,SSW,207,4.9,8.3,35,0.00,,---,0.00,VWS V14.01,2013-04-20 17:05:00,
2013-04-20 13:10:00,56.7,29.3,29.94,WSW,242,5.4,7.6,35,0.00,,---,0.00,VWS V14.01,2013-04-20 17:10:00,
2013-04-20 13:15:00,56.8,29.5,29.97,West,275,5.8,8.3,35,0.00,,---,0.00,VWS V14.01,2013-04-20 17:15:00,
2013-04-20 13:20:00,57.6,30.1,29.97,West,279,4.0,5.4,35,0.00,,---,0.00,VWS V14.01,2013-04-20 17:20:00,
2013-04-20 13:25:00,57.7,30.3,29.97,West,261,3.6,8.3,35,0.00,,---,0.00,VWS V14.01,2013-04-20 17:25:00,
2013-04-20 13:30:00,58.1,30.6,29.94,West,264,5.4,8.3,35,0.00,,---,0.00,VWS V14.01,2013-04-20 17:30:00,
2013-04-20 13:35:00,57.6,30.1,29.94,WSW,249,10.5,10.5,35,0.00,,---,0.00,VWS V14.01,2013-04-20 17:35:00,
2013-04-20 13:40:00,57.7,30.3,29.94,SW,235,6.3,7.6,35,0.00,,---,0.00,VWS V14.01,2013-04-20 17:40:00,
2013-04-20 13:45:00,58.1,30.6,29.94,WSW,252,5.4,6.3,35,0.00,,---,0.00,VWS V14.01,2013-04-20 17:45:00,
2013-04-20 13:50:00,57.9,30.5,29.94,SSW,213,5.4,8.1,35,0.00,,---,0.00,VWS V14.01,2013-04-20 17:50:00,
2013-04-20 13:55:00,57.6,30.1,29.94,NW,304,9.6,9.6,35,0.00,,---,0.00,VWS V14.01,2013-04-20 17:55:00,
2013-04-20 14:00:00,57.2,29.8,29.94,WNW,289,7.6,8.7,35,0.00,,---,0.00,VWS V14.01,2013-04-20 18:00:00,
2013-04-20 14:05:00,56.8,29.5,29.94,WNW,288,5.8,8.1,35,0.00,,---,0.00,VWS V14.01,2013-04-20 18:05:00,
2013-04-20 14:10:00,57.2,29.8,29.94,SW,228,8.1,8.1,35,0.00,,---,0.00,VWS V14.01,2013-04-20 18:10:00,
2013-04-20 14:15:00,57.7,30.3,29.94,SW,229,5.4,5.4,35,0.00,,---,0.00,VWS V14.01,2013-04-20 18:15:00,
2013-04-20 14:20:00,57.7,30.3,29.94,SW,231,8.3,13.2,35,0.00,,---,0.00,VWS V14.01,2013-04-20 18:20:00,
2013-04-20 14:25:00,57.9,30.5,29.94,West,267,4.0,6.3,35,0.00,,---,0.00,VWS V14.01,2013-04-20 18:25:00,
2013-04-20 14:30:00,58.6,31.1,29.97,SW,230,10.1,11.0,35,0.00,,---,0.00,VWS V14.01,2013-04-20 18:30:00,
2013-04-20 14:35:00,57.9,30.5,29.97,SW,221,5.4,8.7,35,0.00,,---,0.00,VWS V14.01,2013-04-20 18:35:00,
2013-04-20 14:40:00,58.1,30.6,29.97,SW,220,3.6,8.1,35,0.00,,---,0.00,VWS V14.01,2013-04-20 18:40:00,
2013-04-20 14:45:00,58.3,30.8,29.97,WSW,240,0.0,4.0,35,0.00,,---,0.00,VWS V14.01,2013-04-20 18:45:00,
2013-04-20 14:50:00,58.5,30.9,29.97,WNW,302,8.3,8.3,35,0.00,,---,0.00,VWS V14.01,2013-04-20 18:50:00,
2013-04-20 14:55:00,58.8,31.2,29.97,WSW,242,2.7,4.0,35,0.00,,---,0.00,VWS V14.01,2013-04-20 18:55:00,
2013-04-20 15:00:00,59.4,31.7,29.97,WSW,240,2.2,6.3,35,0.00,,---,0.00,VWS V14.01,2013-04-20 19:00:00,
2013-04-20 15:05:00,58.8,31.2,29.97,SW,233,8.1,11.0,35,0.00,,---,0.00,VWS V14.01,2013-04-20 19:05:00,
2013-04-20 15:10:00,58.5,30.9,29.97,NW,305,4.0,8.7,35,0.00,,---,0.00,VWS V14.01,2013-04-20 19:10:00,
2013-04-20 15:15:00,58.5,30.9,29.97,SW,236,5.8,8.3,35,0.00,,---,0.00,VWS V14.01,2013-04-20 19:15:00,
2013-04-20 15:20:00,57.9,30.5,29.97,SW,235,8.7,8.7,35,0.00,,---,0.00,VWS V14.01,2013-04-20 19:20:00,
2013-04-20 15:25:00,57.6,30.1,29.97,SW,217,4.0,4.0,35,0.00,,---,0.00,VWS V14.01,2013-04-20 19:25:00,
2013-04-20 15:30:00,57.7,30.3,29.97,SW,231,7.2,7.2,35,0.00,,---,0.00,VWS V14.01,2013-04-20 19:30:00,
2013-04-20 15:35:00,57.9,30.5,29.97,NNW,333,4.9,7.6,35,0.00,,---,0.00,VWS V14.01,2013-04-20 19:35:00,
2013-04-20 15:40:00,58.5,30.9,29.97,NNE,13,8.1,10.5,35,0.00,,---,0.00,VWS V14.01,2013-04-20 19:40:00,
2013-04-20 15:45:00,57.9,30.5,29.97,WNW,287,5.8,5.8,35,0.00,,---,0.00,VWS V14.01,2013-04-20 19:45:00,
2013-04-20 15:50:00,58.8,31.2,29.97,SSW,209,13.2,13.2,35,0.00,,---,0.00,VWS V14.01,2013-04-20 19:50:00,
2013-04-20 15:55:00,59.0,31.4,29.97,SW,231,5.8,5.8,35,0.00,,---,0.00,VWS V14.01,2013-04-20 19:55:00,
2013-04-20 16:00:00,58.8,31.2,29.97,West,264,5.8,7.6,35,0.00,,---,0.00,VWS V14.01,2013-04-20 20:00:00,
2013-04-20 16:05:00,59.7,32.0,29.97,West,270,8.1,8.3,35,0.00,,---,0.00,VWS V14.01,2013-04-20 20:05:00,
2013-04-20 16:10:00,59.5,31.9,29.97,WSW,239,5.8,12.3,35,0.00,,---,0.00,VWS V14.01,2013-04-20 20:10:00,
2013-04-20 16:15:00,58.6,31.1,29.97,SW,227,6.3,8.1,35,0.00,,---,0.00,VWS V14.01,2013-04-20 20:15:00,
2013-04-20 16:20:00,59.5,31.9,29.97,West,263,5.8,5.8,35,0.00,,---,0.00,VWS V14.01,2013-04-20 20:20:00,
2013-04-20 16:25:00,59.9,32.2,29.97,NW,315,5.4,8.7,35,0.00,,---,0.00,VWS V14.01,2013-04-20 20:25:00,
2013-04-20 16:30:00,59.7,32.0,30.00,NNE,13,5.8,5.8,35,0.00,,---,0.00,VWS V14.01,2013-04-20 20:30:00,
2013-04-20 16:35:00,61.0,32.4,30.00,SW,232,3.6,4.0,34,0.00,,---,0.00,VWS V14.01,2013-04-20 20:35:00,
2013-04-20 16:40:00,63.0,34.2,30.00,SSW,213,5.4,5.4,34,0.00,,---,0.00,VWS V14.01,2013-04-20 20:40:00,
2013-04-20 16:45:00,62.8,34.0,30.00,WSW,237,3.1,5.8,34,0.00,,---,0.00,VWS V14.01,2013-04-20 20:45:00,
2013-04-20 16:50:00,63.0,34.2,30.00,SW,226,11.9,11.9,34,0.00,,---,0.00,VWS V14.01,2013-04-20 20:50:00,
2013-04-20 16:55:00,61.2,32.6,30.00,WSW,238,7.6,7.6,34,0.00,,---,0.00,VWS V14.01,2013-04-20 20:55:00,
2013-04-20 17:00:00,60.3,32.5,30.00,WNW,295,0.0,13.2,35,0.00,,---,0.00,VWS V14.01,2013-04-20 21:00:00,
2013-04-20 17:05:00,61.0,32.4,30.00,WSW,251,8.7,10.5,34,0.00,,---,0.00,VWS V14.01,2013-04-20 21:05:00,
2013-04-20 17:10:00,60.6,32.8,30.00,WSW,244,6.3,6.3,35,0.00,,---,0.00,VWS V14.01,2013-04-20 21:10:00,
2013-04-20 17:15:00,60.8,32.3,30.00,SW,225,2.7,4.9,34,0.00,,---,0.00,VWS V14.01,2013-04-20 21:15:00,
2013-04-20 17:20:00,60.6,32.8,30.00,West,270,6.3,7.6,35,0.00,,---,0.00,VWS V14.01,2013-04-20 21:20:00,
2013-04-20 17:25:00,61.3,32.8,30.00,WNW,294,0.0,2.7,34,0.00,,---,0.00,VWS V14.01,2013-04-20 21:25:00,
2013-04-20 17:30:00,61.0,32.4,30.03,WSW,237,4.0,6.3,34,0.00,,---,0.00,VWS V14.01,2013-04-20 21:30:00,
2013-04-20 17:35:00,59.7,32.0,30.03,SW,216,7.6,7.6,35,0.00,,---,0.00,VWS V14.01,2013-04-20 21:35:00,
2013-04-20 17:40:00,59.4,31.7,30.03,SW,234,4.0,5.8,35,0.00,,---,0.00,VWS V14.01,2013-04-20 21:40:00,
2013-04-20 17:45:00,59.7,32.0,30.03,North,357,4.0,4.0,35,0.00,,---,0.00,VWS V14.01,2013-04-20 21:45:00,
2013-04-20 17:50:00,59.5,31.9,30.03,North,353,4.9,6.3,35,0.00,,---,0.00,VWS V14.01,2013-04-20 21:50:00,
2013-04-20 17:55:00,60.4,32.7,30.03,WSW,255,3.6,3.6,35,0.00,,---,0.00,VWS V14.01,2013-04-20 21:55:00,
2013-04-20 18:00:00,59.7,32.0,30.03,SSW,195,8.7,10.1,35,0.00,,---,0.00,VWS V14.01,2013-04-20 22:00:00,
2013-04-20 18:05:00,59.5,31.9,30.03,West,262,2.7,2.7,35,0.00,,---,0.00,VWS V14.01,2013-04-20 22:05:00,
2013-04-20 18:10:00,59.4,31.7,30.03,WSW,252,2.7,2.7,35,0.00,,---,0.00,VWS V14.01,2013-04-20 22:10:00,
2013-04-20 18:15:00,58.3,30.8,30.06,West,259,5.8,6.3,35,0.00,,---,0.00,VWS V14.01,2013-04-20 22:15:00,
2013-04-20 18:20:00,57.2,29.8,30.06,WSW,248,5.4,5.4,35,0.00,,---,0.00,VWS V14.01,2013-04-20 22:20:00,
2013-04-20 18:25:00,56.3,29.0,30.06,WSW,245,8.1,10.5,35,0.00,,---,0.00,VWS V14.01,2013-04-20 22:25:00,
2013-04-20 18:30:00,55.9,28.7,30.06,WSW,258,4.0,5.8,35,0.00,,---,0.00,VWS V14.01,2013-04-20 22:30:00,
2013-04-20 18:35:00,55.4,28.2,30.06,WSW,242,4.9,11.0,35,0.00,,---,0.00,VWS V14.01,2013-04-20 22:35:00,
2013-04-20 18:40:00,54.7,28.3,30.06,SW,219,13.6,13.6,36,0.00,,---,0.00,VWS V14.01,2013-04-20 22:40:00,
2013-04-20 18:45:00,54.1,27.8,30.06,SW,234,7.6,8.3,36,0.00,,---,0.00,VWS V14.01,2013-04-20 22:45:00,
2013-04-20 18:50:00,53.6,27.3,30.06,WSW,247,3.1,8.7,36,0.00,,---,0.00,VWS V14.01,2013-04-20 22:50:00,
2013-04-20 18:55:00,53.2,27.0,30.06,NW,308,0.0,0.0,36,0.00,,---,0.00,VWS V14.01,2013-04-20 22:55:00,
2013-04-20 19:00:00,53.1,26.8,30.06,West,275,6.3,6.3,36,0.00,,---,0.00,VWS V14.01,2013-04-20 23:00:00,
2013-04-20 19:05:00,52.9,26.7,30.06,WSW,255,2.2,2.2,36,0.00,,---,0.00,VWS V14.01,2013-04-20 23:05:00,
2013-04-20 19:10:00,52.5,26.4,30.06,WSW,249,0.0,2.7,36,0.00,,---,0.00,VWS V14.01,2013-04-20 23:10:00,
2013-04-20 19:15:00,52.0,25.9,30.09,West,260,0.0,0.0,36,0.00,,---,0.00,VWS V14.01,2013-04-20 23:15:00,
2013-04-20 19:20:00,51.8,25.7,30.09,WNW,303,0.0,4.0,36,0.00,,---,0.00,VWS V14.01,2013-04-20 23:20:00,
2013-04-20 19:25:00,51.6,25.6,30.09,West,268,4.0,5.4,36,0.00,,---,0.00,VWS V14.01,2013-04-20 23:25:00,
2013-04-20 19:30:00,51.4,25.4,30.09,SW,214,2.2,2.2,36,0.00,,---,0.00,VWS V14.01,2013-04-20 23:30:00,
2013-04-20 19:35:00,51.1,25.1,30.09,WSW,245,3.1,3.1,36,0.00,,---,0.00,VWS V14.01,2013-04-20 23:35:00,
2013-04-20 19:40:00,50.9,24.9,30.09,WSW,258,3.6,3.6,36,0.00,,---,0.00,VWS V14.01,2013-04-20 23:40:00,
2013-04-20 19:45:00,50.7,24.8,30.12,WSW,247,2.7,3.6,36,0.00,,---,0.00,VWS V14.01,2013-04-20 23:45:00,
2013-04-20 19:50:00,50.4,24.4,30.12,SW,231,0.0,2.7,36,0.00,,---,0.00,VWS V14.01,2013-04-20 23:50:00,
2013-04-20 19:55:00,50.0,24.1,30.12,WNW,288,2.7,2.7,36,0.00,,---,0.00,VWS V14.01,2013-04-20 23:55:00,
2013-04-20 20:00:00,49.6,24.5,30.12,SW,224,4.0,5.4,37,0.00,,---,0.00,VWS V14.01,2013-04-21 00:00:00,
2013-04-20 20:05:00,49.8,24.6,30.12,WNW,299,2.7,5.8,37,0.00,,---,0.00,VWS V14.01,2013-04-21 00:05:00,
2013-04-20 20:10:00,49.6,24.5,30.12,SW,235,3.6,3.6,37,0.00,,---,0.00,VWS V14.01,2013-04-21 00:10:00,
2013-04-20 20:15:00,49.3,24.1,30.12,WSW,255,2.7,4.0,37,0.00,,---,0.00,VWS V14.01,2013-04-21 00:15:00,
2013-04-20 20:20:00,49.1,24.0,30.12,West,270,3.1,3.6,37,0.00,,---,0.00,VWS V14.01,2013-04-21 00:20:00,
2013-04-20 20:25:00,48.9,23.8,30.12,WSW,240,0.0,2.7,37,0.00,,---,0.00,VWS V14.01,2013-04-21 00:25:00,
2013-04-20 20:30:00,48.7,23.6,30.15,WSW,258,0.0,5.4,37,0.00,,---,0.00,VWS V14.01,2013-04-21 00:30:00,
2013-04-20 20:35:00,48.9,23.8,30.15,SW,235,2.7,2.7,37,0.00,,---,0.00,VWS V14.01,2013-04-21 00:35:00,
2013-04-20 20:40:00,48.6,23.5,30.15,West,260,0.0,0.0,37,0.00,,---,0.00,VWS V14.01,2013-04-21 00:40:00,
2013-04-20 20:45:00,48.6,23.5,30.15,WSW,251,3.1,3.6,37,0.00,,---,0.00,VWS V14.01,2013-04-21 00:45:00,
2013-04-20 20:50:00,48.6,23.5,30.15,SW,222,3.1,3.1,37,0.00,,---,0.00,VWS V14.01,2013-04-21 00:50:00,
2013-04-20 20:55:00,48.2,23.2,30.15,WSW,256,2.7,2.7,37,0.00,,---,0.00,VWS V14.01,2013-04-21 00:55:00,
2013-04-20 21:00:00,48.0,23.0,30.18,SW,235,6.3,6.3,37,0.00,,---,0.00,VWS V14.01,2013-04-21 01:00:00,
2013-04-20 21:05:00,48.2,23.2,30.18,SSW,202,3.6,5.4,37,0.00,,---,0.00,VWS V14.01,2013-04-21 01:05:00,
2013-04-20 21:10:00,48.2,23.2,30.18,SW,225,3.6,4.0,37,0.00,,---,0.00,VWS V14.01,2013-04-21 01:10:00,
2013-04-20 21:15:00,47.7,22.7,30.18,SW,232,3.6,3.6,37,0.00,,---,0.00,VWS V14.01,2013-04-21 01:15:00,
2013-04-20 21:20:00,47.7,22.7,30.18,WSW,249,3.1,3.1,37,0.00,,---,0.00,VWS V14.01,2013-04-21 01:20:00,
2013-04-20 21:25:00,47.7,22.7,30.18,SW,235,3.1,4.0,37,0.00,,---,0.00,VWS V14.01,2013-04-21 01:25:00,
2013-04-20 21:30:00,47.5,22.5,30.18,West,261,0.0,4.0,37,0.00,,---,0.00,VWS V14.01,2013-04-21 01:30:00,
2013-04-20 21:35:00,47.3,22.4,30.18,West,266,2.2,3.6,37,0.00,,---,0.00,VWS V14.01,2013-04-21 01:35:00,
2013-04-20 21:40:00,47.3,22.4,30.18,WSW,239,3.1,3.6,37,0.00,,---,0.00,VWS V14.01,2013-04-21 01:40:00,
2013-04-20 21:45:00,47.5,22.5,30.21,WSW,257,4.0,4.0,37,0.00,,---,0.00,VWS V14.01,2013-04-21 01:45:00,
2013-04-20 21:50:00,47.1,22.2,30.21,WSW,255,0.0,3.1,37,0.00,,---,0.00,VWS V14.01,2013-04-21 01:50:00,
2013-04-20 21:55:00,47.1,22.2,30.21,WSW,254,2.7,2.7,37,0.00,,---,0.00,VWS V14.01,2013-04-21 01:55:00,
2013-04-20 22:00:00,46.9,22.0,30.21,West,264,0.0,0.0,37,0.00,,---,0.00,VWS V14.01,2013-04-21 02:00:00,
2013-04-20 22:05:00,46.8,21.9,30.21,West,264,3.1,3.1,37,0.00,,---,0.00,VWS V14.01,2013-04-21 02:05:00,
2013-04-20 22:10:00,46.4,21.6,30.21,WSW,249,0.0,0.0,37,0.00,,---,0.00,VWS V14.01,2013-04-21 02:10:00,
2013-04-20 22:15:00,45.7,21.5,30.21,WSW,239,3.6,3.6,38,0.00,,---,0.00,VWS V14.01,2013-04-21 02:15:00,
2013-04-20 22:20:00,45.5,21.4,30.21,WSW,251,0.0,0.0,38,0.00,,---,0.00,VWS V14.01,2013-04-21 02:20:00,
2013-04-20 22:25:00,45.3,21.2,30.21,SW,223,0.0,0.0,38,0.00,,---,0.00,VWS V14.01,2013-04-21 02:25:00,
2013-04-20 22:30:00,45.5,21.4,30.21,West,261,3.1,3.6,38,0.00,,---,0.00,VWS V14.01,2013-04-21 02:30:00,
2013-04-20 22:35:00,45.7,21.5,30.21,West,273,3.6,4.0,38,0.00,,---,0.00,VWS V14.01,2013-04-21 02:35:00,
2013-04-20 22:40:00,45.9,21.7,30.21,West,271,0.0,0.0,38,0.00,,---,0.00,VWS V14.01,2013-04-21 02:40:00,
2013-04-20 22:45:00,45.9,21.7,30.24,West,280,0.0,0.0,38,0.00,,---,0.00,VWS V14.01,2013-04-21 02:45:00,
2013-04-20 22:50:00,45.5,21.4,30.24,NNE,12,0.0,3.1,38,0.00,,---,0.00,VWS V14.01,2013-04-21 02:50:00,
2013-04-20 22:55:00,45.3,21.2,30.24,WSW,251,2.2,3.6,38,0.00,,---,0.00,VWS V14.01,2013-04-21 02:55:00,
2013-04-20 23:00:00,45.1,21.1,30.24,West,268,0.0,4.0,38,0.00,,---,0.00,VWS V14.01,2013-04-21 03:00:00,
2013-04-20 23:05:00,45.1,21.1,30.24,NW,306,0.0,3.1,38,0.00,,---,0.00,VWS V14.01,2013-04-21 03:05:00,
2013-04-20 23:10:00,45.1,21.1,30.24,SW,233,3.6,3.6,38,0.00,,---,0.00,VWS V14.01,2013-04-21 03:10:00,
2013-04-20 23:15:00,44.8,20.7,30.24,West,263,0.0,2.7,38,0.00,,---,0.00,VWS V14.01,2013-04-21 03:15:00,
2013-04-20 23:20:00,45.0,20.9,30.24,North,353,2.7,2.7,38,0.00,,---,0.00,VWS V14.01,2013-04-21 03:20:00,
2013-04-20 23:25:00,44.6,20.6,30.24,West,275,0.0,0.0,38,0.00,,---,0.00,VWS V14.01,2013-04-21 03:25:00,
2013-04-20 23:30:00,44.1,20.1,30.24,West,280,0.0,0.0,38,0.00,,---,0.00,VWS V14.01,2013-04-21 03:30:00,
2013-04-20 23:35:00,44.1,20.1,30.24,WNW,287,3.1,3.1,38,0.00,,---,0.00,VWS V14.01,2013-04-21 03:35:00,
2013-04-20 23:40:00,44.2,20.3,30.24,NNW,330,0.0,0.0,38,0.00,,---,0.00,VWS V14.01,2013-04-21 03:40:00,
2013-04-20 23:45:00,44.4,20.4,30.27,NW,305,2.7,2.7,38,0.00,,---,0.00,VWS V14.01,2013-04-21 03:45:00,
2013-04-20 23:50:00,44.2,20.3,30.27,West,273,0.0,0.0,38,0.00,,---,0.00,VWS V14.01,2013-04-21 03:50:00,
2013-04-20 23:55:00,44.2,20.3,30.27,NW,321,0.0,3.1,38,0.00,,---,0.00,VWS V14.01,2013-04-21 03:55:00,